Time;durP1;ratioP1;P1;durP2;ratioP2;P2;SDS_P1;SDS_P2;PMS_P1;PMS_P2;Temp;Humidity;BMP_temperature;BMP_pressure;BME280_temperature;BME280_humidity;BME280_pressure;Samples;Min_cycle;Max_cycle;Signal;HPM_P1;HPM_P2
2023/02/14 00:01:41;;;;;;;23.40;16.57;;;5.10;99.90;;;-141.84;81.41;18771.38;5032831;28;20666;-61
2023/02/14 00:04:10;;;;;;;19.97;15.13;;;5.10;99.90;;;-141.84;82.07;18749.03;5032540;28;20226;-62
2023/02/14 00:06:38;;;;;;;23.93;17.10;;;5.00;99.90;;;-141.84;81.15;18755.13;5032164;28;20238;-61
2023/02/14 00:09:10;;;;;;;21.13;16.03;;;5.00;99.90;;;-141.84;81.02;18773.41;5032712;28;20221;-62
2023/02/14 00:11:39;;;;;;;20.87;16.00;;;5.00;99.90;;;-141.84;81.56;18781.53;5032525;28;20597;-61
2023/02/14 00:16:53;;;;;;;22.10;16.77;;;5.00;99.90;;;-141.84;81.41;18773.41;5031983;28;20226;-63
2023/02/14 00:19:23;;;;;;;24.83;16.27;;;5.00;99.90;;;-141.84;81.03;18773.41;5031994;28;20229;-62
2023/02/14 00:21:52;;;;;;;22.50;16.50;;;5.10;99.90;;;-141.84;81.53;18787.63;5032040;28;20241;-61
2023/02/14 00:24:23;;;;;;;23.87;17.10;;;5.10;99.90;;;-141.84;82.17;18767.31;5031508;28;20226;-62
2023/02/14 00:26:52;;;;;;;23.87;17.10;;;5.10;99.90;;;-141.84;81.50;18789.66;5031695;28;20340;-60
2023/02/14 00:29:25;;;;;;;20.77;15.30;;;5.10;99.90;;;-141.84;81.72;18787.63;5031888;28;20217;-60
2023/02/14 00:31:54;;;;;;;24.03;16.87;;;5.10;99.90;;;-141.84;81.56;18744.97;5032242;28;20194;-60
2023/02/14 00:34:24;;;;;;;24.80;16.57;;;5.00;99.90;;;-141.84;81.75;18771.38;5031549;28;20241;-61
2023/02/14 00:36:52;;;;;;;25.00;17.90;;;5.00;99.90;;;-141.84;81.93;18749.03;5031576;28;20233;-61
2023/02/14 00:39:21;;;;;;;22.63;16.93;;;4.90;99.90;;;-141.84;81.88;18775.44;5032048;28;20232;-60
2023/02/14 00:41:49;;;;;;;24.40;17.37;;;4.90;99.90;;;-141.84;81.98;18747.00;5031737;28;20233;-63
2023/02/14 00:44:17;;;;;;;21.83;15.87;;;4.90;99.90;;;-141.84;82.38;18726.69;5031356;28;20202;-61
2023/02/14 00:46:46;;;;;;;23.90;15.83;;;4.90;99.90;;;-141.84;82.31;18738.88;5031970;28;20217;-61
2023/02/14 00:49:14;;;;;;;20.93;15.23;;;4.80;99.90;;;-141.84;81.50;18757.16;5031476;28;20233;-62
2023/02/14 00:51:44;;;;;;;22.67;16.60;;;4.80;99.90;;;-141.84;81.88;18751.06;5031542;28;20237;-60
2023/02/14 00:54:12;;;;;;;21.90;15.57;;;4.80;99.90;;;-141.84;82.63;18714.50;5031900;28;20236;-61
2023/02/14 00:56:40;;;;;;;22.23;16.10;;;4.80;99.90;;;-141.84;81.53;18744.97;5031511;28;20229;-60
2023/02/14 00:59:08;;;;;;;23.90;16.73;;;4.80;99.90;;;-141.84;80.45;18781.53;5032061;28;20202;-61
2023/02/14 01:01:36;;;;;;;21.60;15.50;;;4.80;99.90;;;-141.84;80.74;18771.38;5031628;28;20241;-61
2023/02/14 01:04:06;;;;;;;21.80;15.80;;;4.80;99.90;;;-141.84;80.78;18763.25;5031503;28;20233;-61
2023/02/14 01:06:34;;;;;;;23.50;16.93;;;4.80;99.90;;;-141.84;82.21;18742.94;5030960;28;20230;-60
2023/02/14 01:09:05;;;;;;;27.43;18.17;;;4.70;99.90;;;-141.84;82.69;18724.66;5030958;28;20237;-61
2023/02/14 01:11:33;;;;;;;25.23;18.50;;;4.70;99.90;;;-141.84;83.26;18706.38;5031208;28;20232;-61
2023/02/14 01:14:01;;;;;;;22.83;16.83;;;4.60;99.90;;;-141.84;83.88;18712.47;5031677;28;20202;-62
2023/02/14 01:16:30;;;;;;;24.60;17.27;;;4.70;99.90;;;-141.84;82.35;18755.13;5030831;28;20437;-62
2023/02/14 01:19:00;;;;;;;23.67;16.73;;;4.70;99.90;;;-141.84;82.12;18738.88;5030981;28;20324;-61
2023/02/14 01:21:31;;;;;;;24.87;16.90;;;4.70;99.90;;;-141.84;82.92;18726.69;5031154;28;20232;-61
2023/02/14 01:24:04;;;;;;;24.57;17.17;;;4.60;99.90;;;-141.84;83.27;18730.75;5030932;28;20272;-62
2023/02/14 01:26:33;;;;;;;26.30;17.80;;;4.70;99.90;;;-141.84;83.29;18724.66;5030479;28;20225;-62
2023/02/14 01:29:03;;;;;;;23.90;16.90;;;4.70;99.90;;;-141.84;83.54;18753.09;5031120;28;20205;-61
2023/02/14 01:31:34;;;;;;;26.13;17.90;;;4.70;99.90;;;-141.84;84.05;18696.19;5030512;28;20237;-62
2023/02/14 01:34:03;;;;;;;27.30;19.13;;;4.60;99.90;;;-141.84;84.11;18704.31;5030870;28;20299;-62
2023/02/14 01:36:35;;;;;;;24.37;17.63;;;4.70;99.90;;;-141.84;83.83;18714.50;5030231;28;20240;-61
2023/02/14 01:39:08;;;;;;;23.63;17.10;;;4.60;99.90;;;-141.84;83.58;18706.38;5030340;28;20658;-61
2023/02/14 01:41:38;;;;;;;25.70;17.70;;;4.60;99.90;;;-141.84;83.06;18724.66;5030717;28;20230;-61
2023/02/14 01:44:46;;;;;;;24.87;16.63;;;4.60;99.90;;;-141.84;83.29;18698.22;5031339;28;20196;-61
2023/02/14 01:47:16;;;;;;;25.97;17.80;;;4.60;99.90;;;-141.84;83.36;18724.66;5030193;28;20226;-61
2023/02/14 01:49:51;;;;;;;25.33;17.27;;;4.60;99.90;;;-141.84;83.10;18740.91;5030750;28;20204;-61
2023/02/14 01:52:24;;;;;;;25.83;17.43;;;4.60;99.90;;;-141.84;83.34;18698.22;5030208;28;20252;-62
2023/02/14 01:54:59;;;;;;;26.07;17.03;;;4.60;99.90;;;-141.84;83.09;18726.69;5029838;28;20240;-61
2023/02/14 01:57:36;;;;;;;26.67;17.60;;;4.60;99.90;;;-141.84;83.68;18726.69;5029976;28;20543;-62
2023/02/14 02:02:55;;;;;;;25.63;17.77;;;4.70;99.90;;;-141.84;83.30;18726.69;5029755;28;20610;-61
2023/02/14 02:05:24;;;;;;;25.00;17.53;;;4.60;99.90;;;-141.84;82.50;18765.28;5030125;28;20213;-61
2023/02/14 02:07:55;;;;;;;25.73;17.67;;;4.70;99.90;;;-141.84;82.83;18698.22;5030341;28;20230;-61
2023/02/14 02:10:24;;;;;;;25.13;17.43;;;4.70;99.90;;;-141.84;82.49;18718.56;5029909;28;20225;-62
2023/02/14 02:12:53;;;;;;;24.30;17.03;;;4.80;99.90;;;-141.84;82.70;18742.94;5030084;28;20239;-61
2023/02/14 02:15:26;;;;;;;24.43;16.97;;;4.80;99.90;;;-141.84;83.29;18730.75;5030068;28;20233;-61
2023/02/14 02:18:09;;;;;;;25.90;18.13;;;4.70;99.90;;;-141.84;83.69;18738.88;5029745;28;20237;-61
2023/02/14 02:21:41;;;;;;;26.93;18.07;;;4.70;99.90;;;-141.84;83.35;18671.81;5030062;28;20331;-61
2023/02/14 02:24:32;;;;;;;25.80;17.30;;;4.70;99.90;;;-141.84;82.60;18730.75;5029793;28;20229;-62
2023/02/14 02:27:47;;;;;;;26.07;17.30;;;4.80;99.90;;;-141.84;82.49;18738.88;5030056;28;20230;-61
2023/02/14 02:30:55;;;;;;;26.33;17.57;;;4.80;99.90;;;-141.84;82.47;18722.63;5029473;28;20230;-61
2023/02/14 02:34:20;;;;;;;24.57;17.37;;;4.70;99.90;;;-141.84;83.25;18690.09;5029651;28;20340;-62
2023/02/14 02:37:13;;;;;;;26.70;17.57;;;4.60;99.90;;;-141.84;83.74;18716.53;5029595;28;20230;-61
2023/02/14 02:39:58;;;;;;;26.20;17.47;;;4.60;99.90;;;-141.84;84.01;18692.13;5029686;28;20229;-60
2023/02/14 02:42:40;;;;;;;25.70;16.83;;;4.60;99.90;;;-141.84;83.31;18744.97;5029649;28;20320;-60
2023/02/14 02:45:24;;;;;;;25.80;16.83;;;4.70;99.90;;;-141.84;83.28;18724.66;5029533;28;20300;-62
2023/02/14 02:48:05;;;;;;;27.40;17.30;;;4.70;99.90;;;-141.84;83.93;18722.63;5029647;28;20230;-61
2023/02/14 02:53:40;;;;;;;27.90;18.57;;;4.60;99.90;;;-141.84;83.52;18744.97;5029364;28;20218;-61
2023/02/14 02:59:16;;;;;;;24.80;16.77;;;4.70;99.90;;;-141.84;82.72;18726.69;5029479;28;20206;-61
2023/02/14 03:01:52;;;;;;;25.87;17.47;;;4.70;99.90;;;-141.84;82.88;18740.91;5029578;28;20289;-61
2023/02/14 03:09:56;;;;;;;26.47;17.53;;;4.60;99.90;;;-141.84;82.97;18690.09;5032844;28;20226;-60
2023/02/14 03:13:11;;;;;;;27.10;18.33;;;4.60;99.90;;;-141.84;83.01;18712.47;5033238;28;20224;-60
2023/02/14 03:16:23;;;;;;;25.97;17.07;;;4.60;99.90;;;-141.84;83.52;18708.41;5028069;28;20229;-61
2023/02/14 03:19:28;;;;;;;23.60;16.10;;;4.60;99.90;;;-141.84;83.95;18704.31;5033288;28;20233;-60
2023/02/14 03:22:08;;;;;;;26.30;16.70;;;4.50;99.90;;;-141.84;84.12;18704.31;5033153;28;20236;-60
2023/02/14 03:24:53;;;;;;;23.83;16.03;;;4.60;99.90;;;-141.84;84.11;18716.53;5033092;28;20287;-60
2023/02/14 03:27:28;;;;;;;23.00;15.63;;;4.50;99.90;;;-141.84;84.19;18694.16;5033134;28;20236;-62
2023/02/14 03:30:08;;;;;;;24.00;16.27;;;4.50;99.90;;;-141.84;84.15;18694.16;5032951;28;20252;-61
2023/02/14 03:32:46;;;;;;;24.90;17.07;;;4.50;99.90;;;-141.84;83.60;18704.31;5033286;28;20226;-60
2023/02/14 03:35:23;;;;;;;25.20;16.60;;;4.50;99.90;;;-141.84;83.00;18732.78;5032787;28;20213;-62
2023/02/14 03:38:03;;;;;;;24.63;16.00;;;4.50;99.90;;;-141.84;82.30;18710.44;5033376;28;20186;-61
2023/02/14 03:40:40;;;;;;;22.60;15.43;;;4.50;99.90;;;-141.84;82.99;18690.09;5032732;28;20229;-61
2023/02/14 03:43:16;;;;;;;22.43;15.10;;;4.50;99.90;;;-141.84;83.57;18712.47;5032808;28;20232;-61
2023/02/14 03:45:52;;;;;;;21.67;15.67;;;4.50;99.90;;;-141.84;83.71;18736.84;5032555;28;20225;-62
2023/02/14 03:48:26;;;;;;;22.67;16.13;;;4.50;99.90;;;-141.84;82.61;18712.47;5032697;28;20222;-61
2023/02/14 03:50:57;;;;;;;21.17;14.47;;;4.50;99.90;;;-141.84;82.33;18726.69;5032970;28;20260;-61
2023/02/14 03:53:30;;;;;;;21.97;15.60;;;4.50;99.90;;;-141.84;81.76;18744.97;5033002;28;20223;-61
2023/02/14 03:56:09;;;;;;;19.37;13.60;;;4.50;99.90;;;-141.84;81.98;18728.72;5033109;28;20560;-62
2023/02/14 03:58:43;;;;;;;20.77;15.13;;;4.60;99.90;;;-141.84;82.04;18706.38;5032995;28;20313;-60
2023/02/14 04:01:20;;;;;;;18.67;13.30;;;4.50;99.90;;;-141.84;82.76;18696.19;5032203;28;20229;-62
2023/02/14 04:03:51;;;;;;;20.77;15.13;;;4.40;99.90;;;-141.84;82.92;18714.50;5032471;28;20251;-62
2023/02/14 04:06:20;;;;;;;18.47;13.97;;;4.40;99.90;;;-141.84;83.05;18716.53;5032409;28;20241;-62
2023/02/14 04:08:49;;;;;;;18.67;13.37;;;4.40;99.90;;;-141.84;82.83;18673.84;5032346;28;20241;-61
2023/02/14 04:11:17;;;;;;;18.93;13.87;;;4.50;99.90;;;-141.84;82.83;18728.72;5032199;28;20206;-61
2023/02/14 04:13:47;;;;;;;17.93;13.57;;;4.40;99.90;;;-141.84;82.85;18704.31;5032728;28;20573;-60
2023/02/14 04:16:15;;;;;;;19.63;13.87;;;4.50;99.90;;;-141.84;82.19;18708.41;5031738;28;20243;-62
2023/02/14 04:21:28;;;;;;;19.27;13.97;;;4.50;99.90;;;-141.84;81.82;18700.25;5031951;28;20229;-62
2023/02/14 04:23:57;;;;;;;17.37;12.90;;;4.40;99.90;;;-141.84;82.06;18728.72;5031915;28;20221;-62
2023/02/14 04:26:25;;;;;;;17.30;13.03;;;4.40;99.90;;;-141.84;81.61;18740.91;5031730;28;20213;-62
2023/02/14 04:28:54;;;;;;;20.03;13.73;;;4.40;99.90;;;-141.84;81.78;18718.56;5032493;28;20233;-61
2023/02/14 04:31:22;;;;;;;18.83;13.57;;;4.40;99.90;;;-141.84;82.17;18704.31;5031716;28;20234;-62
2023/02/14 04:33:51;;;;;;;19.33;13.53;;;4.40;99.90;;;-141.84;82.14;18732.78;5031965;28;20272;-61
2023/02/14 04:36:19;;;;;;;18.53;13.13;;;4.40;99.90;;;-141.84;81.81;18712.47;5031968;28;20237;-61
2023/02/14 04:38:48;;;;;;;18.07;13.70;;;4.40;99.90;;;-141.84;81.78;18684.00;5031791;28;20766;-60
2023/02/14 04:41:16;;;;;;;18.37;13.20;;;4.40;99.90;;;-141.84;82.24;18708.41;5031934;28;20225;-61
2023/02/14 04:43:44;;;;;;;17.40;13.17;;;4.40;99.90;;;-141.84;81.21;18724.66;5032242;28;20198;-62
2023/02/14 04:46:13;;;;;;;17.47;13.33;;;4.40;99.90;;;-141.84;80.97;18744.97;5031552;28;20596;-61
2023/02/14 04:48:42;;;;;;;17.43;13.30;;;4.30;99.90;;;-141.84;81.60;18728.72;5031487;28;20226;-61
2023/02/14 04:51:10;;;;;;;18.20;12.90;;;4.30;99.90;;;-141.84;81.29;18692.13;5031516;28;20229;-62
2023/02/14 04:53:39;;;;;;;16.90;12.73;;;4.30;99.90;;;-141.84;81.24;18744.97;5031180;28;20697;-60
2023/02/14 04:56:08;;;;;;;16.27;12.80;;;4.30;99.90;;;-141.84;81.03;18732.78;5039951;28;20200;-61
2023/02/14 04:58:36;;;;;;;17.80;13.30;;;4.30;99.90;;;-141.84;80.62;18734.81;5051105;28;20224;-61
2023/02/14 05:01:04;;;;;;;15.27;11.93;;;4.30;99.90;;;-141.84;80.87;18728.72;5050891;28;20262;-60
2023/02/14 05:03:34;;;;;;;16.07;12.27;;;4.30;99.90;;;-141.84;81.17;18728.72;5051241;28;20229;-62
2023/02/14 05:06:02;;;;;;;18.17;12.53;;;4.30;99.90;;;-141.84;80.06;18751.06;5050918;28;20236;-62
2023/02/14 05:08:30;;;;;;;18.23;13.27;;;4.20;99.90;;;-141.84;80.18;18669.78;5051018;28;20285;-61
2023/02/14 05:10:58;;;;;;;16.07;12.07;;;4.20;99.90;;;-141.84;79.99;18702.28;5051616;28;20208;-61
2023/02/14 05:13:27;;;;;;;17.73;12.87;;;4.20;99.90;;;-141.84;79.65;18728.72;5050903;28;20312;-61
2023/02/14 05:15:55;;;;;;;18.20;13.30;;;4.30;99.90;;;-141.84;79.75;18765.28;5050400;28;20267;-61
2023/02/14 05:18:26;;;;;;;17.23;12.50;;;4.20;99.90;;;-141.84;78.82;18777.47;5050764;28;20239;-61
2023/02/14 05:20:56;;;;;;;16.20;12.37;;;4.30;99.90;;;-141.84;78.69;18781.53;5051003;28;20634;-60
2023/02/14 05:23:24;;;;;;;17.53;12.90;;;4.30;99.90;;;-141.84;80.14;18744.97;5050569;28;20644;-61
2023/02/14 05:25:52;;;;;;;16.83;12.33;;;4.20;99.90;;;-141.84;80.71;18724.66;5051700;28;20220;-61
2023/02/14 05:28:21;;;;;;;16.63;11.90;;;4.20;99.90;;;-141.84;81.00;18708.41;5050594;28;20236;-62
2023/02/14 05:30:51;;;;;;;18.10;12.90;;;4.10;99.90;;;-141.84;80.55;18704.31;5050216;28;20236;-62
2023/02/14 05:33:19;;;;;;;15.97;11.87;;;4.10;99.90;;;-141.84;80.44;18714.50;5050478;28;20231;-61
2023/02/14 05:35:47;;;;;;;16.70;12.10;;;4.10;99.90;;;-141.84;80.63;18714.50;5044564;28;20245;-62
2023/02/14 05:38:17;;;;;;;17.10;12.20;;;4.10;99.90;;;-141.84;79.72;18700.25;5039296;28;20217;-60
2023/02/14 05:40:46;;;;;;;14.87;11.83;;;4.10;99.90;;;-141.84;79.92;18708.41;5031226;28;20199;-62
2023/02/14 05:43:14;;;;;;;16.00;11.87;;;4.10;99.90;;;-141.84;80.82;18714.50;5030170;28;20656;-62
2023/02/14 05:45:42;;;;;;;16.13;13.07;;;4.10;99.90;;;-141.84;80.52;18704.31;5030139;28;20237;-60
2023/02/14 05:48:10;;;;;;;15.30;11.90;;;4.00;99.90;;;-141.84;80.18;18716.53;5030268;28;20717;-61
2023/02/14 05:50:39;;;;;;;15.43;11.47;;;4.10;99.90;;;-141.84;80.76;18700.25;5030303;28;20229;-61
2023/02/14 05:53:07;;;;;;;17.13;12.10;;;4.10;99.90;;;-141.84;80.04;18730.75;5030751;28;20206;-60
2023/02/14 05:55:37;;;;;;;16.07;12.17;;;4.10;99.90;;;-141.84;79.25;18712.47;5030111;28;20232;-62
2023/02/14 05:58:05;;;;;;;15.03;11.77;;;4.20;99.90;;;-141.84;78.71;18763.25;5029920;28;20225;-61
2023/02/14 06:00:36;;;;;;;15.43;11.87;;;4.20;99.90;;;-141.84;78.62;18718.56;5029950;28;20241;-61
2023/02/14 06:03:06;;;;;;;17.97;13.00;;;4.20;99.90;;;-141.84;79.68;18696.19;5030089;28;20228;-61
2023/02/14 06:05:34;;;;;;;15.73;11.93;;;4.20;99.90;;;-141.84;78.78;18736.84;5034670;28;20331;-62
2023/02/14 06:08:02;;;;;;;16.87;12.27;;;4.20;99.90;;;-141.84;79.17;18736.84;5050156;28;20213;-62
2023/02/14 06:10:31;;;;;;;15.90;12.23;;;4.20;99.90;;;-141.84;79.65;18714.50;5049614;28;20228;-62
2023/02/14 06:13:00;;;;;;;16.63;12.10;;;4.10;99.90;;;-141.84;79.72;18744.97;5049938;28;20239;-61
2023/02/14 06:15:29;;;;;;;13.87;11.43;;;4.10;99.90;;;-141.84;79.57;18722.63;5049869;28;20724;-61
2023/02/14 06:17:58;;;;;;;15.57;12.10;;;4.10;99.90;;;-141.84;78.74;18749.03;5047128;28;20240;-60
2023/02/14 06:20:26;;;;;;;16.10;12.67;;;4.20;99.90;;;-141.84;78.75;18749.03;5049544;28;20665;-61
2023/02/14 06:22:55;;;;;;;16.07;12.07;;;4.10;99.90;;;-141.84;78.44;18744.97;5050461;28;20205;-60
2023/02/14 06:25:24;;;;;;;20.83;13.73;;;4.20;99.90;;;-141.84;79.23;18753.09;5049736;28;20231;-63
2023/02/14 06:27:56;;;;;;;17.50;13.93;;;4.20;99.90;;;-141.84;79.18;18742.94;5049482;28;20307;-62
2023/02/14 06:30:27;;;;;;;17.73;13.53;;;4.20;99.90;;;-141.84;78.79;18712.47;5049506;28;20250;-61
2023/02/14 06:32:55;;;;;;;18.93;13.90;;;4.20;99.90;;;-141.84;79.29;18714.50;5049549;28;20348;-62
2023/02/14 06:35:24;;;;;;;18.00;13.00;;;4.20;99.90;;;-141.84;79.77;18704.31;5049288;28;20227;-61
2023/02/14 06:37:52;;;;;;;19.80;14.43;;;4.20;99.90;;;-141.84;79.80;18751.06;5049692;28;20205;-60
2023/02/14 06:40:20;;;;;;;18.93;13.40;;;4.20;99.90;;;-141.84;79.19;18753.09;5049651;28;20239;-60
2023/02/14 06:42:48;;;;;;;17.50;13.60;;;4.30;99.90;;;-141.84;79.79;18740.91;5048886;28;20228;-61
2023/02/14 06:45:17;;;;;;;17.37;13.40;;;4.40;99.90;;;-141.84;79.95;18724.66;5049602;28;20249;-59
2023/02/14 06:47:46;;;;;;;17.63;13.23;;;4.40;99.90;;;-141.84;80.21;18724.66;5049510;28;20241;-61
2023/02/14 06:50:15;;;;;;;18.50;13.90;;;4.40;99.90;;;-141.84;80.13;18773.41;5049434;28;20268;-61
2023/02/14 06:52:43;;;;;;;19.80;14.13;;;4.40;99.90;;;-141.84;80.48;18712.47;5050018;28;20204;-60
2023/02/14 06:55:12;;;;;;;20.63;15.23;;;4.40;99.90;;;-141.84;80.46;18726.69;5049313;28;20228;-60
2023/02/14 06:57:40;;;;;;;20.57;14.27;;;4.40;99.90;;;-141.84;80.24;18726.69;5049232;28;20248;-61
2023/02/14 07:00:13;;;;;;;20.63;14.60;;;4.40;99.90;;;-141.84;79.82;18759.19;5049233;28;20221;-62
2023/02/14 07:02:42;;;;;;;20.03;14.43;;;4.40;99.90;;;-141.84;79.52;18773.41;5049445;28;20229;-60
2023/02/14 07:05:11;;;;;;;19.03;14.00;;;4.50;99.90;;;-141.84;79.68;18773.41;5050063;28;20262;-60
2023/02/14 07:07:39;;;;;;;22.07;13.63;;;4.50;99.90;;;-141.84;79.68;18771.38;5049503;28;20298;-62
2023/02/14 07:10:08;;;;;;;18.07;14.20;;;4.60;99.90;;;-141.84;78.66;18779.50;5049156;28;20226;-60
2023/02/14 07:12:38;;;;;;;19.47;13.80;;;4.60;99.90;;;-141.84;78.36;18769.34;5049537;28;20225;-59
2023/02/14 07:15:07;;;;;;;17.87;13.17;;;4.60;99.90;;;-141.84;78.03;18803.88;5049147;28;20308;-61
2023/02/14 07:17:36;;;;;;;18.07;13.33;;;4.60;99.90;;;-141.84;78.71;18785.59;5049024;28;20229;-61
2023/02/14 07:20:06;;;;;;;19.23;13.90;;;4.60;99.90;;;-141.84;78.39;18777.47;5049355;28;20614;-61
2023/02/14 07:22:37;;;;;;;17.50;12.83;;;4.70;99.90;;;-141.84;78.42;18773.41;5048816;28;20233;-61
2023/02/14 07:25:07;;;;;;;18.33;13.10;;;4.80;99.90;;;-141.84;77.53;18777.47;5048962;28;20237;-61
2023/02/14 07:27:36;;;;;;;17.63;13.07;;;4.80;99.90;;;-141.84;77.55;18807.94;5048955;28;20222;-59
2023/02/14 07:30:05;;;;;;;18.53;13.43;;;4.70;99.90;;;-141.84;78.03;18805.91;5048768;28;20221;-60
2023/02/14 07:32:34;;;;;;;18.67;13.83;;;4.70;99.90;;;-141.84;77.31;18793.72;5048952;28;20229;-62
2023/02/14 07:35:03;;;;;;;16.27;12.53;;;4.80;99.90;;;-141.84;76.60;18769.34;5049405;28;20387;-61
2023/02/14 07:37:32;;;;;;;17.23;12.47;;;4.80;99.90;;;-141.84;76.30;18801.84;5048655;28;20229;-60
2023/02/14 07:40:02;;;;;;;16.37;12.57;;;4.90;99.90;;;-141.84;76.69;18830.31;5048702;28;20225;-61
2023/02/14 07:42:30;;;;;;;16.07;12.33;;;4.90;99.90;;;-141.84;76.74;18812.00;5048964;28;20229;-61
2023/02/14 07:44:58;;;;;;;15.57;12.07;;;5.00;99.90;;;-141.84;77.25;18781.53;5048747;28;20240;-61
2023/02/14 07:47:33;;;;;;;16.77;12.53;;;5.00;99.90;;;-141.84;77.26;18801.84;5048787;28;20286;-61
2023/02/14 07:50:02;;;;;;;16.70;12.60;;;5.10;99.90;;;-141.84;77.04;18793.72;5049318;28;20206;-60
2023/02/14 07:52:30;;;;;;;16.27;12.53;;;5.10;99.90;;;-141.84;77.27;18832.34;5048783;28;20225;-60
2023/02/14 07:54:58;;;;;;;17.43;12.83;;;5.20;99.90;;;-141.84;76.94;18840.47;5050917;28;20230;-60
2023/02/14 07:57:27;;;;;;;18.57;13.67;;;5.20;99.90;;;-141.84;75.05;18824.22;5052272;28;20252;-61
2023/02/14 07:59:55;;;;;;;14.83;11.53;;;5.30;99.90;;;-141.84;75.08;18852.66;5052225;28;21179;-62
2023/02/14 08:02:24;;;;;;;15.97;12.33;;;5.30;99.90;;;-141.84;73.80;18870.94;5052117;28;20544;-60
2023/02/14 08:04:52;;;;;;;16.70;12.57;;;5.40;99.90;;;-141.84;74.47;18858.75;5052811;28;20213;-60
2023/02/14 08:07:20;;;;;;;15.50;12.03;;;5.40;99.90;;;-141.84;74.89;18860.78;5051986;28;20225;-61
2023/02/14 08:09:48;;;;;;;16.17;12.87;;;5.40;99.90;;;-141.84;74.74;18850.63;5051871;28;20601;-60
2023/02/14 08:17:45;;;;;;;15.23;12.13;;;5.70;99.90;;;-141.84;73.02;18895.31;5051662;28;20225;-61
2023/02/14 08:20:13;;;;;;;13.90;11.33;;;5.80;99.90;;;-141.84;73.68;18858.75;5052370;28;20344;-60
2023/02/14 08:22:42;;;;;;;16.23;12.03;;;5.80;99.90;;;-141.84;73.31;18887.19;5052395;28;20209;-60
2023/02/14 08:25:10;;;;;;;15.10;12.03;;;5.90;99.90;;;-141.84;73.22;18931.91;5051705;28;20252;-60
2023/02/14 08:27:38;;;;;;;16.20;12.40;;;5.90;99.90;;;-141.84;71.57;18923.78;5052024;28;20229;-60
2023/02/14 08:30:09;;;;;;;17.63;12.70;;;5.90;99.90;;;-141.84;70.83;18952.22;5051578;28;20225;-60
2023/02/14 08:32:37;;;;;;;16.87;12.83;;;5.90;99.90;;;-141.84;71.61;18960.34;5051961;28;20232;-60
2023/02/14 08:35:06;;;;;;;15.13;12.23;;;6.00;99.90;;;-141.84;70.81;18940.03;5052096;28;20296;-61
2023/02/14 08:37:35;;;;;;;18.80;12.53;;;6.10;99.90;;;-141.84;71.74;18964.41;5051485;28;20240;-60
2023/02/14 08:40:03;;;;;;;15.73;12.50;;;6.20;99.90;;;-141.84;71.43;18942.06;5051383;28;20602;-60
2023/02/14 08:42:32;;;;;;;16.67;13.13;;;6.10;99.90;;;-141.84;71.28;18972.53;5051537;28;20229;-61
2023/02/14 08:45:00;;;;;;;14.67;11.50;;;6.20;99.90;;;-141.84;71.83;18980.66;5051495;28;20244;-60
2023/02/14 08:47:34;;;;;;;19.50;13.90;;;6.20;99.90;;;-141.84;71.78;18952.22;5051482;28;20292;-59
2023/02/14 08:50:02;;;;;;;19.47;12.97;;;6.30;99.90;;;-141.84;71.33;19003.00;5051986;28;20243;-59
2023/02/14 08:52:30;;;;;;;17.67;12.30;;;6.30;99.90;;;-141.84;68.99;19009.09;5051115;28;20669;-62
2023/02/14 08:54:59;;;;;;;16.93;12.70;;;6.30;99.90;;;-141.84;69.21;19027.41;5051158;28;20234;-61
2023/02/14 08:57:27;;;;;;;16.87;12.77;;;6.40;99.90;;;-141.84;70.57;18990.81;5051195;28;20221;-60
2023/02/14 08:59:55;;;;;;;20.53;13.30;;;6.40;99.90;;;-141.84;70.26;19017.25;5051151;28;20259;-59
2023/02/14 09:02:23;;;;;;;17.17;13.83;;;6.40;99.90;;;-141.84;70.73;18980.66;5051234;28;20223;-60
2023/02/14 09:04:53;;;;;;;17.93;13.63;;;6.60;99.90;;;-141.84;70.46;18972.53;5050876;28;20204;-63
2023/02/14 09:07:22;;;;;;;17.67;13.07;;;6.60;99.90;;;-141.84;70.87;18988.78;5050742;28;20232;-60
2023/02/14 09:09:50;;;;;;;17.00;12.67;;;6.70;99.90;;;-141.84;70.32;19025.38;5050456;28;20693;-62
2023/02/14 09:12:18;;;;;;;16.53;12.27;;;6.80;99.90;;;-141.84;68.99;19041.63;5050797;28;20336;-61
2023/02/14 09:14:46;;;;;;;15.73;12.97;;;7.00;99.90;;;-141.84;68.78;19033.50;5050625;28;20221;-60
2023/02/14 09:17:16;;;;;;;15.33;12.23;;;7.10;99.90;;;-141.84;68.07;19096.47;5050826;28;20236;-59
2023/02/14 09:19:44;;;;;;;15.63;12.43;;;7.20;99.90;;;-141.84;68.19;19027.41;5051529;28;20197;-61
2023/02/14 09:22:14;;;;;;;15.47;12.90;;;7.20;99.90;;;-141.84;68.64;19053.81;5050573;28;20304;-59
2023/02/14 09:24:42;;;;;;;14.80;11.17;;;7.20;99.90;;;-141.84;68.80;19080.22;5050753;28;20663;-61
2023/02/14 09:27:10;;;;;;;17.20;12.67;;;7.30;99.90;;;-141.84;68.54;19076.16;5050624;28;20221;-59
2023/02/14 09:29:38;;;;;;;16.07;12.30;;;7.30;99.90;;;-141.84;68.09;19106.66;5050573;28;20232;-60
2023/02/14 09:32:06;;;;;;;15.77;12.80;;;7.40;99.90;;;-141.84;67.68;19096.47;5051019;28;20252;-60
2023/02/14 09:34:35;;;;;;;15.47;12.63;;;7.50;99.90;;;-141.84;67.51;19110.72;5050541;28;20635;-60
2023/02/14 09:39:50;;;;;;;18.57;13.33;;;7.70;99.90;;;-141.84;65.80;19145.25;5050912;28;20650;-60
2023/02/14 09:42:53;;;;;;;18.33;12.30;;;7.80;99.90;;;-141.84;66.21;19159.47;5050388;28;20295;-61
2023/02/14 09:45:25;;;;;;;18.63;12.57;;;7.80;99.90;;;-141.84;66.58;19145.25;5050540;28;20233;-60
2023/02/14 09:48:02;;;;;;;16.93;12.63;;;7.70;99.90;;;-141.84;66.61;19192.00;5050312;28;20225;-59
2023/02/14 09:50:39;;;;;;;19.17;13.17;;;7.80;99.90;;;-141.84;66.66;19157.44;5050475;28;20185;-58
2023/02/14 09:53:22;;;;;;;17.93;12.73;;;8.00;99.90;;;-141.84;66.35;19187.91;5050891;28;20229;-60
2023/02/14 09:56:02;;;;;;;18.00;12.73;;;8.00;99.90;;;-141.84;65.67;19228.56;5050455;28;20216;-61
2023/02/14 09:58:36;;;;;;;18.03;13.30;;;8.00;99.90;;;-141.84;65.97;19204.19;5049844;28;20243;-62
2023/02/14 10:01:15;;;;;;;17.83;13.33;;;8.10;99.90;;;-141.84;65.18;19189.97;5049936;28;20220;-61
2023/02/14 10:04:21;;;;;;;17.40;13.70;;;8.10;99.90;;;-141.84;65.23;19218.41;5049955;28;20232;-60
2023/02/14 10:06:56;;;;;;;17.50;13.00;;;8.30;99.90;;;-141.84;64.88;19228.56;5049609;28;20229;-62
2023/02/14 10:09:53;;;;;;;19.63;14.10;;;8.30;99.90;;;-141.84;64.83;19263.09;5049989;28;20598;-60
2023/02/14 10:12:31;;;;;;;18.87;12.97;;;8.40;99.90;;;-141.84;64.40;19267.16;5049784;28;20233;-60
2023/02/14 10:15:19;;;;;;;17.37;11.97;;;8.50;99.90;;;-141.84;63.64;19271.25;5049627;28;20221;-61
2023/02/14 10:17:55;;;;;;;16.37;12.83;;;8.50;99.90;;;-141.84;63.86;19271.25;5048709;28;20709;-59
2023/02/14 10:20:32;;;;;;;18.33;13.20;;;8.50;99.90;;;-141.84;64.90;19252.94;5049631;28;20181;-59
2023/02/14 10:23:12;;;;;;;19.20;13.40;;;8.50;99.90;;;-141.84;64.68;19257.00;5050055;28;20201;-60
2023/02/14 10:25:49;;;;;;;19.90;13.17;;;8.50;99.90;;;-141.84;63.77;19277.34;5049989;28;20693;-60
2023/02/14 10:28:31;;;;;;;16.20;13.03;;;8.70;99.90;;;-141.84;63.99;19289.53;5049349;28;20232;-61
2023/02/14 10:31:19;;;;;;;18.53;12.43;;;8.80;99.90;;;-141.84;64.30;19309.84;5049412;28;20476;-61
2023/02/14 10:33:55;;;;;;;16.93;13.07;;;8.90;99.90;;;-141.84;64.35;19295.63;5049635;28;20266;-60
2023/02/14 10:36:47;;;;;;;13.30;10.03;;;9.00;99.90;;;-141.84;63.26;19299.69;5049235;28;20220;-60
2023/02/14 10:39:44;;;;;;;15.13;11.13;;;9.10;99.90;;;-141.84;63.10;19313.91;5049691;28;20236;-61
2023/02/14 10:42:29;;;;;;;15.97;12.90;;;9.20;99.90;;;-141.84;62.95;19338.28;5049677;28;20221;-60
2023/02/14 10:45:17;;;;;;;16.27;13.43;;;9.20;99.90;;;-141.84;63.26;19320.00;5049447;28;20287;-61
2023/02/14 10:47:57;;;;;;;16.97;12.77;;;9.30;99.90;;;-141.84;63.07;19350.50;5049994;28;20227;-61
2023/02/14 10:50:36;;;;;;;18.47;14.17;;;9.30;99.90;;;-141.84;63.28;19317.97;5049388;28;20249;-61
2023/02/14 10:53:19;;;;;;;17.70;13.53;;;9.30;99.90;;;-141.84;63.47;19350.50;5049591;28;20210;-60